Time;durP1;ratioP1;P1;durP2;ratioP2;P2;SDS_P1;SDS_P2;PMS_P1;PMS_P2;Temp;Humidity;BMP_temperature;BMP_pressure;BME280_temperature;BME280_humidity;BME280_pressure;Samples;Min_cycle;Max_cycle;Signal;HPM_P1;HPM_P2
2022/05/30 06:29:26;;;;;;;13.55;6.88;;;;;;;;;;5785824;23;20054;-56
2022/05/30 06:31:51;;;;;;;17.50;6.47;;;;;;;;;;4989840;28;20477;-50
2022/05/30 06:34:17;;;;;;;14.32;7.80;;;;;;;;;;4992532;28;20030;-57
2022/05/30 06:36:43;;;;;;;12.73;7.50;;;;;;;;;;4994162;28;20061;-44
2022/05/30 06:39:10;;;;;;;11.65;6.82;;;;;;;;;;4994398;28;20358;-52
2022/05/30 06:41:35;;;;;;;18.73;7.20;;;;;;;;;;4993578;28;20497;-51
2022/05/30 06:44:05;;;;;;;11.90;8.10;;;;;;;;;;4993139;28;20109;-40
2022/05/30 06:46:33;;;;;;;11.30;7.87;;;;;;;;;;4993061;28;20026;-44
2022/05/30 06:48:59;;;;;;;11.98;8.10;;;;;;;;;;4992397;28;20030;-40
2022/05/30 06:51:27;;;;;;;11.65;7.75;;;;;;;;;;4992484;28;20026;-41
2022/05/30 06:53:54;;;;;;;10.30;6.70;;;;;;;;;;4992684;28;20026;-44
2022/05/30 06:56:24;;;;;;;8.10;5.82;;;;;;;;;;4992964;28;20045;-39
2022/05/30 06:58:51;;;;;;;10.23;5.82;;;;;;;;;;4992439;28;20109;-49
2022/05/30 07:01:18;;;;;;;11.88;7.07;;;;;;;;;;4992972;28;20026;-55
2022/05/30 07:03:45;;;;;;;8.32;5.20;;;;;;;;;;4992701;28;20037;-49
2022/05/30 07:06:13;;;;;;;5.40;3.60;;;;;;;;;;4992464;28;20042;-41
2022/05/30 07:08:39;;;;;;;6.43;4.47;;;;;;;;;;4997615;28;20017;-48
2022/05/30 07:11:06;;;;;;;11.13;6.68;;;;;;;;;;5001726;28;20135;-60
2022/05/30 07:13:32;;;;;;;10.73;5.30;;;;;;;;;;4994237;28;20033;-59
2022/05/30 07:15:58;;;;;;;15.63;7.95;;;;;;;;;;5011938;28;20044;-54
2022/05/30 07:18:24;;;;;;;11.77;6.28;;;;;;;;;;5011884;28;20038;-59
2022/05/30 07:21:01;;;;;;;6.63;3.90;;;;;;;;;;5011696;28;20018;-60
2022/05/30 07:23:27;;;;;;;9.82;5.05;;;;;;;;;;5011576;28;20358;-57
2022/05/30 07:26:01;;;;;;;9.68;3.60;;;;;;;;;;5011513;28;20428;-55
2022/05/30 07:28:30;;;;;;;2.95;2.42;;;;;;;;;;5011898;28;20037;-56
2022/05/30 07:31:09;;;;;;;3.17;2.50;;;;;;;;;;5028905;28;20489;-47
2022/05/30 07:33:37;;;;;;;9.13;3.05;;;;;;;;;;5031528;28;20038;-52
2022/05/30 07:36:08;;;;;;;4.38;3.17;;;;;;;;;;5031558;28;20043;-63
2022/05/30 07:38:34;;;;;;;4.80;2.78;;;;;;;;;;5031474;28;20110;-62
2022/05/30 07:41:00;;;;;;;4.15;3.20;;;;;;;;;;5031179;28;20457;-40
2022/05/30 07:43:25;;;;;;;7.38;3.13;;;;;;;;;;5031140;28;20032;-54
2022/05/30 07:45:50;;;;;;;6.15;3.58;;;;;;;;;;5030541;28;20056;-59
2022/05/30 07:48:16;;;;;;;3.53;2.72;;;;;;;;;;5031197;28;20041;-40
2022/05/30 07:50:41;;;;;;;6.47;3.33;;;;;;;;;;5031095;28;20105;-39
2022/05/30 07:53:08;;;;;;;5.15;3.10;;;;;;;;;;5031001;28;20017;-39
2022/05/30 07:55:34;;;;;;;4.00;3.10;;;;;;;;;;5030914;28;20033;-49
2022/05/30 07:58:04;;;;;;;6.95;2.60;;;;;;;;;;5030842;28;20064;-55
2022/05/30 08:00:32;;;;;;;;;;;;;;;;;;5031369;28;20026;-53
2022/05/30 08:02:57;;;;;;;6.07;3.03;;;;;;;;;;5031083;28;19913;-61
2022/05/30 08:05:23;;;;;;;5.88;2.97;;;;;;;;;;5031108;28;20079;-60
2022/05/30 08:07:48;;;;;;;3.95;2.60;;;;;;;;;;5030362;28;20026;-46
2022/05/30 08:10:15;;;;;;;3.50;2.92;;;;;;;;;;5028022;28;20038;-42
2022/05/30 08:12:41;;;;;;;3.63;2.50;;;;;;;;;;5017369;28;20567;-57
2022/05/30 08:15:07;;;;;;;3.97;2.88;;;;;;;;;;5031017;28;20037;-39
2022/05/30 08:17:33;;;;;;;4.35;3.05;;;;;;;;;;5031011;28;20029;-54
2022/05/30 08:19:59;;;;;;;3.35;2.47;;;;;;;;;;5030617;28;20033;-63
2022/05/30 08:22:26;;;;;;;4.10;2.92;;;;;;;;;;5030991;28;20072;-59
2022/05/30 08:24:52;;;;;;;4.63;3.13;;;;;;;;;;5030546;28;20025;-64
2022/05/30 08:27:19;;;;;;;4.22;3.28;;;;;;;;;;5026739;28;20865;-40
2022/05/30 08:29:44;;;;;;;2.88;2.58;;;;;;;;;;5019114;28;20069;-43
2022/05/30 08:32:12;;;;;;;4.88;2.85;;;;;;;;;;5020811;28;20022;-64
2022/05/30 08:34:42;;;;;;;4.82;3.40;;;;;;;;;;5013677;28;20476;-53
2022/05/30 08:37:09;;;;;;;4.55;2.83;;;;;;;;;;5010560;28;20034;-59
2022/05/30 08:42:31;;;;;;;3.38;2.72;;;;;;;;;;5010676;28;20037;-46
2022/05/30 08:44:57;;;;;;;2.75;2.50;;;;;;;;;;5011758;28;20030;-50
2022/05/30 08:47:40;;;;;;;3.30;2.70;;;;;;;;;;5019658;28;20075;-53
2022/05/30 08:50:21;;;;;;;5.60;2.75;;;;;;;;;;5030522;28;20033;-44
2022/05/30 08:53:09;;;;;;;5.65;3.15;;;;;;;;;;5030329;28;20032;-49
2022/05/30 08:56:01;;;;;;;6.28;3.00;;;;;;;;;;5030152;28;20640;-58
2022/05/30 08:58:36;;;;;;;4.20;2.70;;;;;;;;;;4991624;28;20041;-62
2022/05/30 09:01:11;;;;;;;3.00;2.60;;;;;;;;;;5030149;28;20072;-59
2022/05/30 09:04:09;;;;;;;4.90;2.65;;;;;;;;;;5030572;28;20108;-62
2022/05/30 09:06:42;;;;;;;4.53;2.88;;;;;;;;;;5030357;28;20064;-64
2022/05/30 09:09:43;;;;;;;4.78;2.60;;;;;;;;;;5030262;28;20053;-39
2022/05/30 09:12:19;;;;;;;7.13;2.75;;;;;;;;;;5026714;28;20846;-57
2022/05/30 09:14:53;;;;;;;4.53;2.78;;;;;;;;;;5026872;28;20030;-54
2022/05/30 09:17:25;;;;;;;3.15;2.60;;;;;;;;;;5017611;28;20163;-40
2022/05/30 09:19:54;;;;;;;3.92;2.70;;;;;;;;;;5018620;28;20054;-57
2022/05/30 09:22:21;;;;;;;4.55;2.70;;;;;;;;;;5021682;28;20484;-48
2022/05/30 09:25:55;;;;;;;2.67;2.47;;;;;;;;;;5033602;28;20030;-46
2022/05/30 09:27:32;;;;;;;7.78;3.17;;;;;;;;;;5033590;28;20033;-59
2022/05/30 09:30:00;;;;;;;3.47;3.05;;;;;;;;;;5033477;28;20061;-44
2022/05/30 09:32:36;;;;;;;4.75;2.78;;;;;;;;;;5033934;28;20025;-58
2022/05/30 09:35:27;;;;;;;4.10;2.55;;;;;;;;;;5033837;28;20029;-51
2022/05/30 09:38:08;;;;;;;4.88;2.70;;;;;;;;;;5033430;28;20762;-46
2022/05/30 09:40:55;;;;;;;5.38;3.50;;;;;;;;;;5024749;28;20076;-50
2022/05/30 09:43:38;;;;;;;2.50;2.30;;;;;;;;;;5013284;28;20029;-49
2022/05/30 09:46:25;;;;;;;2.42;2.22;;;;;;;;;;5022944;28;20370;-55
2022/05/30 09:49:14;;;;;;;2.70;1.77;;;;;;;;;;5003777;28;20028;-46
2022/05/30 09:51:43;;;;;;;2.35;1.90;;;;;;;;;;5023981;28;20030;-46
2022/05/30 09:54:26;;;;;;;4.25;2.15;;;;;;;;;;5018563;28;20026;-64
2022/05/30 09:57:08;;;;;;;3.75;2.80;;;;;;;;;;5029793;28;20038;-60
2022/05/30 09:59:45;;;;;;;2.00;1.90;;;;;;;;;;5032900;28;20140;-40
2022/05/30 10:02:32;;;;;;;3.70;2.50;;;;;;;;;;5033056;28;20030;-56
2022/05/30 10:05:03;;;;;;;2.38;2.05;;;;;;;;;;5032558;28;20049;-49
2022/05/30 10:07:32;;;;;;;2.85;2.20;;;;;;;;;;5032663;28;20036;-56
2022/05/30 10:10:17;;;;;;;5.82;2.35;;;;;;;;;;5032423;28;20080;-47
2022/05/30 10:12:56;;;;;;;3.63;1.88;;;;;;;;;;5031557;28;20570;-43
2022/05/30 10:15:38;;;;;;;3.05;2.70;;;;;;;;;;5032434;28;20033;-49
2022/05/30 10:18:18;;;;;;;4.53;2.88;;;;;;;;;;5032278;28;20041;-63
2022/05/30 10:20:45;;;;;;;;;;;;;;;;;;5032595;28;20034;-63
2022/05/30 10:29:33;;;;;;;3.00;2.15;;;;;;;;;;4994457;28;19975;-44
2022/05/30 10:32:10;;;;;;;7.18;2.40;;;;;;;;;;5032111;28;20037;-57
2022/05/30 10:34:58;;;;;;;2.67;1.85;;;;;;;;;;5032447;28;20022;-58
2022/05/30 10:37:51;;;;;;;2.67;1.92;;;;;;;;;;5032417;28;20076;-56
2022/05/30 10:40:45;;;;;;;3.38;2.33;;;;;;;;;;5032480;28;20033;-54
2022/05/30 10:43:17;;;;;;;2.97;2.15;;;;;;;;;;5010536;28;20041;-50
2022/05/30 10:45:49;;;;;;;3.30;2.33;;;;;;;;;;5032298;28;20033;-63
2022/05/30 10:48:40;;;;;;;2.10;1.90;;;;;;;;;;5032254;28;20436;-62
2022/05/30 10:51:28;;;;;;;3.65;2.10;;;;;;;;;;5004421;28;20459;-61
2022/05/30 10:53:59;;;;;;;3.33;2.00;;;;;;;;;;5032315;28;20030;-59
2022/05/30 10:56:37;;;;;;;3.08;2.22;;;;;;;;;;5032157;28;20560;-60
2022/05/30 10:59:11;;;;;;;5.97;2.28;;;;;;;;;;5032022;28;20115;-60
2022/05/30 11:01:55;;;;;;;2.25;2.05;;;;;;;;;;5032173;28;20119;-56
2022/05/30 11:04:29;;;;;;;4.05;2.15;;;;;;;;;;5031874;28;20687;-55
2022/05/30 11:07:04;;;;;;;4.57;2.22;;;;;;;;;;5032069;28;20068;-59
2022/05/30 11:09:41;;;;;;;3.60;2.30;;;;;;;;;;5031637;28;20057;-61
2022/05/30 11:12:18;;;;;;;4.00;2.40;;;;;;;;;;5032016;28;20033;-62
2022/05/30 11:15:19;;;;;;;2.40;2.20;;;;;;;;;;5031729;28;20049;-55
2022/05/30 11:17:56;;;;;;;8.55;2.63;;;;;;;;;;5031193;28;20044;-53
2022/05/30 11:20:37;;;;;;;2.55;2.10;;;;;;;;;;5031454;28;20030;-52
2022/05/30 11:23:05;;;;;;;4.43;1.50;;;;;;;;;;5031569;28;20064;-66
2022/05/30 11:26:02;;;;;;;3.83;1.83;;;;;;;;;;5031340;28;20052;-62
2022/05/30 11:28:42;;;;;;;2.05;1.60;;;;;;;;;;5031431;28;20648;-65
2022/05/30 11:31:21;;;;;;;2.40;2.20;;;;;;;;;;5031269;28;20046;-43
2022/05/30 11:33:49;;;;;;;3.17;2.15;;;;;;;;;;5031540;28;20345;-59
2022/05/30 11:36:15;;;;;;;2.03;1.77;;;;;;;;;;5031151;28;20052;-44
2022/05/30 11:38:59;;;;;;;5.00;2.58;;;;;;;;;;5030839;28;20623;-59
2022/05/30 11:41:52;;;;;;;3.35;2.08;;;;;;;;;;5031043;28;20500;-61
2022/05/30 11:45:00;;;;;;;3.58;2.10;;;;;;;;;;5030555;28;20057;-58
2022/05/30 11:47:31;;;;;;;3.08;2.17;;;;;;;;;;5017658;28;20068;-50
2022/05/30 11:50:19;;;;;;;6.30;2.95;;;;;;;;;;5015871;28;20025;-60
2022/05/30 11:53:09;;;;;;;4.97;2.80;;;;;;;;;;5011249;28;20824;-55
2022/05/30 11:55:51;;;;;;;2.00;1.80;;;;;;;;;;5011384;28;20025;-39
2022/05/30 11:58:47;;;;;;;2.05;1.73;;;;;;;;;;5010871;28;20025;-53
2022/05/30 12:01:15;;;;;;;3.10;1.67;;;;;;;;;;5010859;28;20370;-41
2022/05/30 12:04:02;;;;;;;5.32;1.65;;;;;;;;;;5019506;28;20049;-52
2022/05/30 12:06:37;;;;;;;3.72;1.58;;;;;;;;;;5030921;28;20052;-43
2022/05/30 12:09:11;;;;;;;1.83;1.33;;;;;;;;;;5025153;28;20037;-44
2022/05/30 12:12:01;;;;;;;2.85;1.40;;;;;;;;;;5017033;28;20065;-58
2022/05/30 12:15:03;;;;;;;2.92;1.50;;;;;;;;;;5017746;28;20048;-50
2022/05/30 12:24:09;;;;;;;2.65;1.85;;;;;;;;;;5018975;28;20075;-57
2022/05/30 12:26:49;;;;;;;5.90;2.63;;;;;;;;;;5018557;28;20034;-63
2022/05/30 12:29:31;;;;;;;;;;;;;;;;;;5018694;28;20058;-57
2022/05/30 12:32:21;;;;;;;5.00;2.78;;;;;;;;;;5017437;28;19913;-64
2022/05/30 12:35:11;;;;;;;;;;;;;;;;;;5014117;28;20065;-40
2022/05/30 12:38:06;;;;;;;3.47;2.15;;;;;;;;;;5017748;28;20004;-63
2022/05/30 12:40:35;;;;;;;4.22;1.55;;;;;;;;;;5016951;28;20022;-42
2022/05/30 12:43:07;;;;;;;6.97;2.42;;;;;;;;;;5019395;28;20022;-49
2022/05/30 12:45:37;;;;;;;5.53;4.22;;;;;;;;;;5011312;28;20481;-66
2022/05/30 12:48:22;;;;;;;;;;;;;;;;;;5016605;28;20041;-57
2022/05/30 12:50:51;;;;;;;3.47;2.20;;;;;;;;;;4982424;28;19917;-53
2022/05/30 12:53:18;;;;;;;7.53;2.20;;;;;;;;;;5010827;28;20076;-48
2022/05/30 12:55:52;;;;;;;8.25;1.98;;;;;;;;;;5014120;28;20033;-61
2022/05/30 12:58:36;;;;;;;5.65;2.58;;;;;;;;;;5014335;28;20054;-46
2022/05/30 13:01:22;;;;;;;8.13;2.63;;;;;;;;;;5014351;28;20033;-57
2022/05/30 13:04:08;;;;;;;2.63;1.30;;;;;;;;;;5014294;28;20084;-47
2022/05/30 13:06:43;;;;;;;4.55;1.60;;;;;;;;;;5014355;28;20385;-66
2022/05/30 13:09:18;;;;;;;2.33;1.75;;;;;;;;;;5014185;28;20275;-65
2022/05/30 13:11:52;;;;;;;7.45;1.80;;;;;;;;;;5013482;28;20099;-66
2022/05/30 13:14:36;;;;;;;1.60;1.20;;;;;;;;;;5014030;28;20377;-63
2022/05/30 13:17:18;;;;;;;3.08;1.40;;;;;;;;;;5014143;28;20041;-59
2022/05/30 13:19:59;;;;;;;1.88;1.20;;;;;;;;;;5014127;28;20113;-49
2022/05/30 13:22:36;;;;;;;2.75;1.52;;;;;;;;;;5013845;28;20026;-58
2022/05/30 13:25:04;;;;;;;1.95;1.60;;;;;;;;;;5014007;28;20034;-46
2022/05/30 13:27:30;;;;;;;7.22;2.08;;;;;;;;;;5013806;28;20478;-39
2022/05/30 13:30:01;;;;;;;1.63;1.40;;;;;;;;;;5013662;28;20073;-55
2022/05/30 13:32:29;;;;;;;2.30;1.48;;;;;;;;;;5013214;28;20026;-46
2022/05/30 13:34:58;;;;;;;3.78;1.95;;;;;;;;;;5013553;28;20053;-63
2022/05/30 13:37:29;;;;;;;1.57;1.20;;;;;;;;;;5013871;28;20030;-58
2022/05/30 13:39:59;;;;;;;3.15;1.40;;;;;;;;;;4994069;28;20081;-65
2022/05/30 13:42:45;;;;;;;1.65;1.30;;;;;;;;;;4994038;28;20092;-40
2022/05/30 13:45:11;;;;;;;3.13;1.25;;;;;;;;;;4976554;28;20363;-60
2022/05/30 13:47:40;;;;;;;4.55;1.50;;;;;;;;;;4993855;28;20113;-59
2022/05/30 13:50:06;;;;;;;3.73;1.70;;;;;;;;;;4993862;28;20031;-46
2022/05/30 13:52:32;;;;;;;2.50;1.42;;;;;;;;;;4993905;28;20267;-46
2022/05/30 13:55:05;;;;;;;3.95;1.40;;;;;;;;;;4993992;28;20030;-44
2022/05/30 13:57:31;;;;;;;1.90;1.38;;;;;;;;;;4993519;28;20104;-39
2022/05/30 14:00:00;;;;;;;2.78;1.58;;;;;;;;;;4996787;28;20034;-57
2022/05/30 14:02:32;;;;;;;6.45;2.05;;;;;;;;;;5021456;28;20125;-43
2022/05/30 14:05:04;;;;;;;2.60;1.83;;;;;;;;;;5013135;28;20033;-64
2022/05/30 14:07:33;;;;;;;6.80;1.98;;;;;;;;;;5012350;28;20503;-62
2022/05/30 14:10:05;;;;;;;4.53;1.83;;;;;;;;;;5013032;28;20488;-50
2022/05/30 14:12:33;;;;;;;4.25;1.90;;;;;;;;;;4995678;28;20385;-42
2022/05/30 14:15:33;;;;;;;1.85;1.60;;;;;;;;;;5013205;28;20057;-60
2022/05/30 14:18:22;;;;;;;2.00;1.38;;;;;;;;;;5013270;28;20133;-67
2022/05/30 14:20:49;;;;;;;2.78;1.40;;;;;;;;;;5012870;28;20037;-41
2022/05/30 14:23:16;;;;;;;2.53;1.25;;;;;;;;;;5013030;28;20038;-43
2022/05/30 14:25:49;;;;;;;2.25;1.50;;;;;;;;;;4995166;28;20175;-66
2022/05/30 14:28:27;;;;;;;3.65;1.80;;;;;;;;;;5012652;28;20052;-67
2022/05/30 14:30:54;;;;;;;1.65;1.45;;;;;;;;;;5012599;28;20041;-68
2022/05/30 14:33:19;;;;;;;5.97;1.70;;;;;;;;;;5012700;28;20109;-67
2022/05/30 14:35:45;;;;;;;2.60;1.70;;;;;;;;;;5012410;28;20109;-68
2022/05/30 14:38:24;;;;;;;5.40;3.22;;;;;;;;;;5017016;28;20029;-39
2022/05/30 14:40:50;;;;;;;3.88;1.27;;;;;;;;;;5032170;28;20026;-60
2022/05/30 14:43:29;;;;;;;3.13;1.30;;;;;;;;;;5014132;28;20040;-65
2022/05/30 14:46:06;;;;;;;2.40;1.35;;;;;;;;;;5032458;28;20373;-52
2022/05/30 14:48:32;;;;;;;3.10;1.05;;;;;;;;;;5032165;28;20041;-40
2022/05/30 14:51:05;;;;;;;1.63;1.13;;;;;;;;;;5032271;28;20024;-55
2022/05/30 14:53:36;;;;;;;4.72;1.23;;;;;;;;;;5032188;28;20029;-70
2022/05/30 14:56:06;;;;;;;2.97;1.23;;;;;;;;;;5013867;28;20029;-62
2022/05/30 14:58:46;;;;;;;1.20;1.10;;;;;;;;;;5031990;28;20057;-41
2022/05/30 15:01:12;;;;;;;3.97;1.70;;;;;;;;;;5031793;28;20030;-43
2022/05/30 15:06:30;;;;;;;1.88;1.40;;;;;;;;;;5032134;28;20107;-39
2022/05/30 15:08:56;;;;;;;1.80;1.40;;;;;;;;;;5031684;28;20112;-39
2022/05/30 15:11:26;;;;;;;1.98;1.33;;;;;;;;;;5031781;28;20101;-54
2022/05/30 15:13:55;;;;;;;;;;;;;;;;;;5032071;28;20033;-40
2022/05/30 15:16:22;;;;;;;2.00;1.48;;;;;;;;;;5031486;28;19917;-54
2022/05/30 15:18:48;;;;;;;4.32;1.65;;;;;;;;;;5030615;28;20033;-63
2022/05/30 15:21:37;;;;;;;5.30;2.17;;;;;;;;;;5031278;28;20026;-47
2022/05/30 15:24:28;;;;;;;2.88;1.80;;;;;;;;;;5031397;28;20132;-60
2022/05/30 15:26:54;;;;;;;1.63;1.52;;;;;;;;;;5018561;28;20038;-69
2022/05/30 15:29:20;;;;;;;8.48;2.03;;;;;;;;;;5016207;28;20449;-50
2022/05/30 15:31:47;;;;;;;2.35;1.60;;;;;;;;;;4999708;28;20022;-40
2022/05/30 15:34:13;;;;;;;4.03;1.50;;;;;;;;;;4991796;28;20490;-43
2022/05/30 15:36:39;;;;;;;3.70;1.90;;;;;;;;;;4991885;28;20513;-68
2022/05/30 15:39:07;;;;;;;2.90;1.55;;;;;;;;;;4992575;28;20038;-43
2022/05/30 15:41:33;;;;;;;4.68;2.13;;;;;;;;;;4991766;28;20062;-41
2022/05/30 15:43:59;;;;;;;2.53;1.67;;;;;;;;;;4991964;28;20062;-38
2022/05/30 15:46:25;;;;;;;1.80;1.70;;;;;;;;;;4991683;28;20027;-43
2022/05/30 15:48:51;;;;;;;2.55;1.90;;;;;;;;;;4991955;28;20034;-43
2022/05/30 15:51:18;;;;;;;2.65;1.83;;;;;;;;;;4991724;28;20122;-44
2022/05/30 15:59:31;;;;;;;3.97;1.85;;;;;;;;;;4991525;28;20162;-39
2022/05/30 16:01:57;;;;;;;2.25;1.90;;;;;;;;;;4991589;28;20112;-45
2022/05/30 16:04:22;;;;;;;2.30;2.10;;;;;;;;;;5001872;28;20501;-43
2022/05/30 16:06:52;;;;;;;2.65;2.42;;;;;;;;;;5011169;28;20034;-42
2022/05/30 16:09:19;;;;;;;4.93;2.22;;;;;;;;;;5008452;28;20037;-38
2022/05/30 16:11:49;;;;;;;5.10;2.22;;;;;;;;;;5002034;28;20029;-39
2022/05/30 16:14:16;;;;;;;3.60;2.17;;;;;;;;;;5006579;28;20724;-42
2022/05/30 16:16:42;;;;;;;3.45;2.10;;;;;;;;;;5011074;28;20069;-53
2022/05/30 16:19:08;;;;;;;2.40;2.20;;;;;;;;;;5010938;28;20041;-39
2022/05/30 16:21:34;;;;;;;3.65;1.90;;;;;;;;;;5010958;28;20034;-39
2022/05/30 16:24:02;;;;;;;3.35;1.75;;;;;;;;;;4993404;28;20080;-49
2022/05/30 16:26:34;;;;;;;4.05;1.70;;;;;;;;;;5011272;28;20067;-51
2022/05/30 16:29:00;;;;;;;2.85;1.80;;;;;;;;;;5012504;28;20413;-67
2022/05/30 16:31:26;;;;;;;2.00;1.73;;;;;;;;;;5035129;28;20063;-47
2022/05/30 16:33:52;;;;;;;2.47;2.20;;;;;;;;;;5034868;28;20026;-66
2022/05/30 16:36:20;;;;;;;4.30;2.20;;;;;;;;;;5034596;28;20030;-38
2022/05/30 16:38:45;;;;;;;2.75;1.88;;;;;;;;;;5034527;28;20116;-39
2022/05/30 16:41:11;;;;;;;4.10;2.30;;;;;;;;;;5034524;28;20116;-63
2022/05/30 16:43:37;;;;;;;2.90;1.98;;;;;;;;;;5033540;28;20049;-52
2022/05/30 16:46:05;;;;;;;6.13;1.90;;;;;;;;;;5034294;28;20048;-64
2022/05/30 16:48:34;;;;;;;4.07;2.00;;;;;;;;;;5034542;28;20370;-68
2022/05/30 16:51:01;;;;;;;5.53;2.40;;;;;;;;;;5034209;28;20100;-67
2022/05/30 16:53:28;;;;;;;2.70;2.50;;;;;;;;;;5034262;28;20029;-67
2022/05/30 16:55:54;;;;;;;4.88;2.88;;;;;;;;;;5034380;28;20045;-41
2022/05/30 16:58:20;;;;;;;3.08;2.33;;;;;;;;;;5034430;28;20030;-67
2022/05/30 17:00:47;;;;;;;2.90;2.45;;;;;;;;;;5034081;28;20025;-63
2022/05/30 17:03:13;;;;;;;5.75;3.22;;;;;;;;;;5034281;28;20057;-39
2022/05/30 17:05:42;;;;;;;4.75;2.92;;;;;;;;;;5034208;28;20477;-67
2022/05/30 17:08:10;;;;;;;4.90;3.42;;;;;;;;;;5034054;28;20030;-40
2022/05/30 17:10:36;;;;;;;5.40;3.25;;;;;;;;;;5033785;28;20026;-41
2022/05/30 17:13:02;;;;;;;5.35;3.28;;;;;;;;;;5033942;28;20048;-40
2022/05/30 17:15:27;;;;;;;5.47;3.90;;;;;;;;;;5033925;28;20029;-43
2022/05/30 17:17:53;;;;;;;5.22;3.72;;;;;;;;;;5034023;28;20385;-49
2022/05/30 17:20:29;;;;;;;6.90;4.18;;;;;;;;;;5033883;28;20654;-55
2022/05/30 17:22:55;;;;;;;7.00;3.50;;;;;;;;;;5033896;28;20176;-40
2022/05/30 17:25:21;;;;;;;13.90;3.85;;;;;;;;;;5033908;28;20104;-68
2022/05/30 17:30:31;;;;;;;7.88;4.05;;;;;;;;;;5033661;28;20508;-41
2022/05/30 17:32:56;;;;;;;11.63;4.25;;;;;;;;;;5015742;28;20124;-60
2022/05/30 17:35:22;;;;;;;6.78;4.22;;;;;;;;;;5033743;28;20155;-68
2022/05/30 17:37:47;;;;;;;6.53;3.80;;;;;;;;;;5033213;28;20052;-39
2022/05/30 17:40:13;;;;;;;4.95;3.17;;;;;;;;;;5032948;28;20029;-68
2022/05/30 17:42:40;;;;;;;6.05;3.70;;;;;;;;;;5032969;28;20396;-42
2022/05/30 17:45:06;;;;;;;8.77;3.22;;;;;;;;;;5033341;28;20038;-61
2022/05/30 17:47:42;;;;;;;4.65;3.63;;;;;;;;;;5033599;28;20032;-63
2022/05/30 17:50:13;;;;;;;6.13;3.35;;;;;;;;;;5015534;28;20032;-66
2022/05/30 17:52:51;;;;;;;5.72;3.38;;;;;;;;;;5033556;28;20717;-56
2022/05/30 17:55:17;;;;;;;4.45;3.15;;;;;;;;;;5033288;28;20045;-54
2022/05/30 17:57:43;;;;;;;3.83;2.97;;;;;;;;;;5033255;28;20468;-43
2022/05/30 18:00:14;;;;;;;4.25;3.33;;;;;;;;;;5033099;28;20037;-43
2022/05/30 18:02:42;;;;;;;5.18;3.80;;;;;;;;;;5033012;28;20029;-52
2022/05/30 18:05:10;;;;;;;6.80;3.58;;;;;;;;;;5033116;28;20031;-38
2022/05/30 18:07:40;;;;;;;3.30;2.95;;;;;;;;;;5032906;28;20500;-45
2022/05/30 18:10:29;;;;;;;3.50;3.17;;;;;;;;;;5033008;28;20048;-40
2022/05/30 18:13:14;;;;;;;7.53;3.65;;;;;;;;;;5032891;28;20543;-41
2022/05/30 18:16:22;;;;;;;3.63;2.90;;;;;;;;;;5032937;28;20053;-40
2022/05/30 18:22:09;;;;;;;4.38;3.10;;;;;;;;;;5032841;28;20032;-43
2022/05/30 18:24:47;;;;;;;3.78;2.88;;;;;;;;;;5032681;28;20035;-43
2022/05/30 18:27:13;;;;;;;3.15;2.80;;;;;;;;;;5032681;28;20508;-65
2022/05/30 18:29:39;;;;;;;2.80;2.50;;;;;;;;;;5031895;28;20084;-67
2022/05/30 18:32:23;;;;;;;4.70;2.95;;;;;;;;;;5032453;28;20115;-42
2022/05/30 18:34:58;;;;;;;4.53;3.00;;;;;;;;;;5032434;28;20468;-51
2022/05/30 18:38:01;;;;;;;3.65;2.55;;;;;;;;;;5032521;28;20111;-60
2022/05/30 18:40:44;;;;;;;3.95;2.60;;;;;;;;;;5032292;28;20045;-40
2022/05/30 18:43:33;;;;;;;3.97;3.00;;;;;;;;;;5032323;28;20100;-46
2022/05/30 18:46:05;;;;;;;5.07;2.38;;;;;;;;;;5032529;28;20063;-56
2022/05/30 18:48:34;;;;;;;4.57;2.58;;;;;;;;;;5032578;28;20405;-43
2022/05/30 18:51:00;;;;;;;8.85;4.18;;;;;;;;;;5030734;28;20489;-69
2022/05/30 18:53:26;;;;;;;5.72;3.20;;;;;;;;;;5031660;28;20076;-43
2022/05/30 18:56:02;;;;;;;10.95;3.13;;;;;;;;;;5031882;28;20049;-47
2022/05/30 18:58:30;;;;;;;4.65;3.08;;;;;;;;;;5032005;28;20044;-44
2022/05/30 19:00:56;;;;;;;6.72;3.40;;;;;;;;;;5031953;28;20029;-46
2022/05/30 19:03:29;;;;;;;4.07;2.92;;;;;;;;;;5032191;28;20431;-49
2022/05/30 19:05:54;;;;;;;6.15;3.67;;;;;;;;;;5014055;28;20052;-51
2022/05/30 19:08:20;;;;;;;11.98;7.50;;;;;;;;;;5032034;28;20021;-47
2022/05/30 19:11:06;;;;;;;5.82;4.45;;;;;;;;;;5031927;28;20033;-49
2022/05/30 19:13:46;;;;;;;8.50;5.38;;;;;;;;;;5032004;28;20048;-63
2022/05/30 19:19:09;;;;;;;9.52;5.80;;;;;;;;;;5016678;28;20075;-52
2022/05/30 19:21:35;;;;;;;7.80;5.05;;;;;;;;;;5031891;28;20033;-40
2022/05/30 19:24:00;;;;;;;7.63;5.03;;;;;;;;;;5031466;28;20567;-52
2022/05/30 19:26:25;;;;;;;7.82;4.15;;;;;;;;;;5031558;28;20392;-54
2022/05/30 19:28:51;;;;;;;6.90;4.88;;;;;;;;;;5031338;28;20021;-39
2022/05/30 19:31:21;;;;;;;6.13;5.20;;;;;;;;;;5031380;28;20045;-38
2022/05/30 19:33:47;;;;;;;;;;;;;;;;;;5031742;28;20484;-52
2022/05/30 19:36:12;;;;;;;7.38;4.15;;;;;;;;;;5031298;28;19913;-61
2022/05/30 19:38:38;;;;;;;5.57;4.00;;;;;;;;;;5029527;28;20033;-43
2022/05/30 19:41:06;;;;;;;5.95;3.88;;;;;;;;;;5030735;28;20048;-40
2022/05/30 19:43:33;;;;;;;7.65;4.22;;;;;;;;;;5030543;28;20473;-43
2022/05/30 19:46:00;;;;;;;5.47;3.97;;;;;;;;;;5030861;28;20079;-51
2022/05/30 19:48:27;;;;;;;5.55;3.92;;;;;;;;;;5030675;28;20113;-54
2022/05/30 19:50:52;;;;;;;5.63;4.03;;;;;;;;;;5030664;28;20105;-39
2022/05/30 19:53:18;;;;;;;5.68;3.45;;;;;;;;;;5031007;28;20108;-38
2022/05/30 19:55:44;;;;;;;5.25;4.03;;;;;;;;;;5013140;28;20461;-38
2022/05/30 19:58:12;;;;;;;7.85;3.78;;;;;;;;;;5013284;28;20060;-52
2022/05/30 20:00:38;;;;;;;6.22;3.90;;;;;;;;;;5030969;28;20033;-57
2022/05/30 20:03:04;;;;;;;5.93;3.80;;;;;;;;;;5030396;28;20545;-46
2022/05/30 20:05:31;;;;;;;4.22;3.47;;;;;;;;;;5030218;28;20466;-48
2022/05/30 20:07:57;;;;;;;5.10;3.78;;;;;;;;;;5030958;28;20468;-54
2022/05/30 20:10:24;;;;;;;4.93;3.70;;;;;;;;;;5031942;28;20022;-48
2022/05/30 20:12:50;;;;;;;5.85;3.10;;;;;;;;;;5032715;28;20380;-42
2022/05/30 20:15:16;;;;;;;7.07;3.85;;;;;;;;;;5032430;28;20037;-57
2022/05/30 20:17:45;;;;;;;17.17;3.85;;;;;;;;;;5032562;28;20069;-56
2022/05/30 20:20:17;;;;;;;3.67;3.05;;;;;;;;;;5032238;28;20036;-42
2022/05/30 20:22:42;;;;;;;6.60;3.60;;;;;;;;;;5032354;28;20075;-39
2022/05/30 20:25:10;;;;;;;6.38;3.70;;;;;;;;;;5032569;28;20143;-51
2022/05/30 20:27:37;;;;;;;5.57;3.70;;;;;;;;;;5032136;28;20036;-57
2022/05/30 20:30:04;;;;;;;4.90;3.80;;;;;;;;;;5032065;28;20152;-62
2022/05/30 20:32:30;;;;;;;6.65;3.85;;;;;;;;;;5032114;28;20087;-41
2022/05/30 20:34:57;;;;;;;4.28;3.58;;;;;;;;;;5024329;28;20075;-55
2022/05/30 20:37:22;;;;;;;4.40;3.72;;;;;;;;;;5012237;28;20097;-54
2022/05/30 20:39:48;;;;;;;5.07;3.88;;;;;;;;;;5019948;28;20034;-43
2022/05/30 20:45:02;;;;;;;5.45;3.90;;;;;;;;;;5021106;28;20132;-39
2022/05/30 20:47:37;;;;;;;5.93;3.80;;;;;;;;;;5020183;28;20509;-44
2022/05/30 20:50:04;;;;;;;6.50;3.95;;;;;;;;;;5012372;28;20474;-43
2022/05/30 20:52:29;;;;;;;4.28;3.85;;;;;;;;;;5012306;28;20056;-64
2022/05/30 20:54:55;;;;;;;5.22;3.25;;;;;;;;;;5012483;28;20033;-63
2022/05/30 20:57:20;;;;;;;4.55;3.60;;;;;;;;;;5012285;28;20489;-44
2022/05/30 20:59:46;;;;;;;5.20;3.30;;;;;;;;;;5012174;28;20113;-63
2022/05/30 21:02:11;;;;;;;4.03;3.30;;;;;;;;;;5012142;28;20057;-60
2022/05/30 21:04:37;;;;;;;4.70;3.60;;;;;;;;;;5012403;28;20033;-56
2022/05/30 21:07:03;;;;;;;4.60;3.50;;;;;;;;;;5012020;28;20087;-49
2022/05/30 21:09:29;;;;;;;4.30;3.63;;;;;;;;;;5012123;28;20121;-50
2022/05/30 21:11:54;;;;;;;4.47;3.30;;;;;;;;;;5012032;28;20090;-48
2022/05/30 21:14:20;;;;;;;5.57;3.65;;;;;;;;;;5011447;28;20469;-47
2022/05/30 21:17:00;;;;;;;5.35;3.42;;;;;;;;;;5015181;28;20551;-47
2022/05/30 21:19:50;;;;;;;7.40;3.58;;;;;;;;;;5015727;28;20030;-43
2022/05/30 21:22:19;;;;;;;7.25;3.67;;;;;;;;;;5015959;28;20040;-47
2022/05/30 21:24:45;;;;;;;4.40;3.53;;;;;;;;;;4997828;28;20432;-42
2022/05/30 21:27:11;;;;;;;8.52;3.45;;;;;;;;;;5015692;28;20097;-53
2022/05/30 21:29:36;;;;;;;6.90;3.90;;;;;;;;;;5015377;28;20509;-54
2022/05/30 21:32:13;;;;;;;4.93;3.50;;;;;;;;;;5015415;28;20038;-43
2022/05/30 21:34:39;;;;;;;5.68;3.30;;;;;;;;;;5015977;28;20535;-41
2022/05/30 21:37:08;;;;;;;3.97;3.50;;;;;;;;;;5015339;28;20030;-49
2022/05/30 21:39:34;;;;;;;4.38;3.53;;;;;;;;;;5015189;28;20030;-53
2022/05/30 21:42:00;;;;;;;6.07;3.47;;;;;;;;;;5015468;28;20571;-60
2022/05/30 21:44:25;;;;;;;5.18;3.70;;;;;;;;;;5015444;28;20022;-60
2022/05/30 21:46:52;;;;;;;4.30;3.60;;;;;;;;;;5014604;28;20018;-62
2022/05/30 21:49:18;;;;;;;4.32;3.70;;;;;;;;;;5015113;28;20396;-54
2022/05/30 21:51:44;;;;;;;3.75;3.40;;;;;;;;;;5014994;28;20032;-53
2022/05/30 21:54:09;;;;;;;4.57;3.55;;;;;;;;;;5014943;28;20061;-55
2022/05/30 21:56:37;;;;;;;4.50;3.70;;;;;;;;;;5015239;28;20076;-63
2022/05/30 21:59:08;;;;;;;5.25;4.25;;;;;;;;;;5015071;28;20170;-60
2022/05/30 22:01:33;;;;;;;;;;;;;;;;;;5015154;28;20056;-49
2022/05/30 22:03:59;;;;;;;4.72;3.78;;;;;;;;;;5014000;28;19952;-62
2022/05/30 22:06:25;;;;;;;3.88;3.45;;;;;;;;;;5014386;28;20734;-53
2022/05/30 22:08:52;;;;;;;5.82;3.53;;;;;;;;;;5013085;28;20132;-54
2022/05/30 22:11:21;;;;;;;6.25;3.65;;;;;;;;;;5012888;28;20113;-39
2022/05/30 22:13:49;;;;;;;7.95;4.05;;;;;;;;;;5012852;28;20057;-42
2022/05/30 22:16:28;;;;;;;6.85;4.18;;;;;;;;;;5012858;28;20030;-38
2022/05/30 22:18:55;;;;;;;5.95;3.83;;;;;;;;;;5012733;28;20061;-39